Middleboro, Massachusetts
Current Conditions -  °F | °C
As of 11:52 AM on Saturday 22 Nov 2014 (Local Time) from KTAN Reporting Station
Clear Clear  
Wind Chill: 33°   Ceiling: Unl
Heat Index: 40°   Visibility: 10mi
Dew Point: 17°   Wind: 13mph
Humidity: 40%   Direction: 220°SW
Pressure: 30.3"   Gusts: 22mph
Location:  41.89°N, 70.91°W
Report Text: KTAN 221652Z AUTO 22011G19KT 180V250 10SM CLR 04/M08 A3030 RMK AO2 SLP259 T00441083
Loading
Personal Weather Stations






























Interactive Weather Map New forecast layout! Learn more

10-Day Weather Forecast

Advertisements
Track Severe Weather on mobile